sensor_id;sensor_type;location;lat;lon;timestamp;P1;durP1;ratioP1;P2;durP2;ratioP2
55800;SDS011;41730;51.960;20.158;2023-07-31T00:01:00;2.60;;;1.60;;
55800;SDS011;41730;51.960;20.158;2023-07-31T00:03:29;2.60;;;1.70;;
55800;SDS011;41730;51.960;20.158;2023-07-31T00:05:57;2.20;;;1.60;;
55800;SDS011;41730;51.960;20.158;2023-07-31T00:08:27;3.00;;;1.70;;
55800;SDS011;41730;51.960;20.158;2023-07-31T00:10:57;2.50;;;1.50;;
55800;SDS011;41730;51.960;20.158;2023-07-31T00:13:25;2.40;;;1.60;;
55800;SDS011;41730;51.960;20.158;2023-07-31T00:15:54;2.60;;;1.60;;
55800;SDS011;41730;51.960;20.158;2023-07-31T00:18:23;2.70;;;1.70;;
55800;SDS011;41730;51.960;20.158;2023-07-31T00:20:52;3.10;;;1.80;;
55800;SDS011;41730;51.960;20.158;2023-07-31T00:23:21;2.50;;;1.70;;
55800;SDS011;41730;51.960;20.158;2023-07-31T00:25:50;5.40;;;1.80;;
55800;SDS011;41730;51.960;20.158;2023-07-31T00:28:19;2.60;;;1.80;;
55800;SDS011;41730;51.960;20.158;2023-07-31T00:30:48;4.20;;;1.70;;
55800;SDS011;41730;51.960;20.158;2023-07-31T00:33:17;4.50;;;1.80;;
55800;SDS011;41730;51.960;20.158;2023-07-31T00:35:46;3.60;;;1.90;;
55800;SDS011;41730;51.960;20.158;2023-07-31T00:38:15;4.50;;;1.80;;
55800;SDS011;41730;51.960;20.158;2023-07-31T00:40:45;2.80;;;2.00;;
55800;SDS011;41730;51.960;20.158;2023-07-31T00:43:14;4.70;;;1.80;;
55800;SDS011;41730;51.960;20.158;2023-07-31T00:45:43;3.10;;;2.10;;
55800;SDS011;41730;51.960;20.158;2023-07-31T00:48:12;2.70;;;1.90;;
55800;SDS011;41730;51.960;20.158;2023-07-31T00:50:41;3.10;;;1.90;;
55800;SDS011;41730;51.960;20.158;2023-07-31T00:53:10;2.50;;;1.80;;
55800;SDS011;41730;51.960;20.158;2023-07-31T00:55:39;2.50;;;1.70;;
55800;SDS011;41730;51.960;20.158;2023-07-31T00:58:08;4.10;;;1.90;;
55800;SDS011;41730;51.960;20.158;2023-07-31T01:00:37;4.80;;;2.00;;
55800;SDS011;41730;51.960;20.158;2023-07-31T01:03:06;3.20;;;1.90;;
55800;SDS011;41730;51.960;20.158;2023-07-31T01:05:39;3.10;;;2.00;;
55800;SDS011;41730;51.960;20.158;2023-07-31T01:08:27;4.00;;;2.30;;
55800;SDS011;41730;51.960;20.158;2023-07-31T01:13:33;3.30;;;2.40;;
55800;SDS011;41730;51.960;20.158;2023-07-31T01:16:03;3.00;;;2.00;;
55800;SDS011;41730;51.960;20.158;2023-07-31T01:18:32;3.60;;;2.30;;
55800;SDS011;41730;51.960;20.158;2023-07-31T01:21:03;5.20;;;2.80;;
55800;SDS011;41730;51.960;20.158;2023-07-31T01:23:54;4.70;;;2.70;;
55800;SDS011;41730;51.960;20.158;2023-07-31T01:26:36;3.20;;;2.30;;
55800;SDS011;41730;51.960;20.158;2023-07-31T01:29:08;3.20;;;2.20;;
55800;SDS011;41730;51.960;20.158;2023-07-31T01:31:46;4.00;;;2.00;;
55800;SDS011;41730;51.960;20.158;2023-07-31T01:34:18;4.70;;;2.50;;
55800;SDS011;41730;51.960;20.158;2023-07-31T01:36:48;3.50;;;2.30;;
55800;SDS011;41730;51.960;20.158;2023-07-31T01:39:17;3.30;;;2.30;;
55800;SDS011;41730;51.960;20.158;2023-07-31T01:41:48;3.20;;;1.90;;
55800;SDS011;41730;51.960;20.158;2023-07-31T01:44:17;3.10;;;2.20;;
55800;SDS011;41730;51.960;20.158;2023-07-31T01:46:46;4.10;;;2.50;;
55800;SDS011;41730;51.960;20.158;2023-07-31T01:49:16;3.70;;;2.50;;
55800;SDS011;41730;51.960;20.158;2023-07-31T01:51:45;3.40;;;2.20;;
55800;SDS011;41730;51.960;20.158;2023-07-31T01:54:14;3.50;;;2.60;;
55800;SDS011;41730;51.960;20.158;2023-07-31T01:56:43;3.50;;;2.50;;
55800;SDS011;41730;51.960;20.158;2023-07-31T01:59:12;4.30;;;2.50;;
55800;SDS011;41730;51.960;20.158;2023-07-31T02:01:40;3.60;;;2.50;;
55800;SDS011;41730;51.960;20.158;2023-07-31T02:04:09;6.90;;;2.50;;
55800;SDS011;41730;51.960;20.158;2023-07-31T02:06:38;4.10;;;2.50;;
55800;SDS011;41730;51.960;20.158;2023-07-31T02:09:08;3.90;;;2.70;;
55800;SDS011;41730;51.960;20.158;2023-07-31T02:11:37;5.50;;;2.60;;
55800;SDS011;41730;51.960;20.158;2023-07-31T02:14:06;3.10;;;2.60;;
55800;SDS011;41730;51.960;20.158;2023-07-31T02:16:35;3.40;;;2.40;;
55800;SDS011;41730;51.960;20.158;2023-07-31T02:19:04;4.80;;;2.70;;
55800;SDS011;41730;51.960;20.158;2023-07-31T02:21:33;3.50;;;2.30;;
55800;SDS011;41730;51.960;20.158;2023-07-31T02:24:03;5.20;;;2.70;;
55800;SDS011;41730;51.960;20.158;2023-07-31T02:26:32;4.30;;;2.70;;
55800;SDS011;41730;51.960;20.158;2023-07-31T02:29:01;4.30;;;2.80;;
55800;SDS011;41730;51.960;20.158;2023-07-31T02:31:30;3.40;;;2.60;;
55800;SDS011;41730;51.960;20.158;2023-07-31T02:33:59;3.40;;;2.30;;
55800;SDS011;41730;51.960;20.158;2023-07-31T02:36:28;4.20;;;2.50;;
55800;SDS011;41730;51.960;20.158;2023-07-31T02:38:57;3.80;;;2.80;;
55800;SDS011;41730;51.960;20.158;2023-07-31T02:41:26;3.70;;;2.50;;
55800;SDS011;41730;51.960;20.158;2023-07-31T02:43:54;4.40;;;2.60;;
55800;SDS011;41730;51.960;20.158;2023-07-31T02:46:23;5.50;;;2.80;;
55800;SDS011;41730;51.960;20.158;2023-07-31T02:48:52;4.00;;;2.30;;
55800;SDS011;41730;51.960;20.158;2023-07-31T02:51:21;3.30;;;2.20;;
55800;SDS011;41730;51.960;20.158;2023-07-31T02:53:50;3.70;;;2.20;;
55800;SDS011;41730;51.960;20.158;2023-07-31T02:56:19;3.40;;;2.70;;
55800;SDS011;41730;51.960;20.158;2023-07-31T02:58:49;3.20;;;2.30;;
55800;SDS011;41730;51.960;20.158;2023-07-31T03:01:17;3.60;;;2.50;;
55800;SDS011;41730;51.960;20.158;2023-07-31T03:03:46;3.50;;;2.40;;
55800;SDS011;41730;51.960;20.158;2023-07-31T03:06:15;3.90;;;2.40;;
55800;SDS011;41730;51.960;20.158;2023-07-31T03:08:44;3.10;;;2.40;;
55800;SDS011;41730;51.960;20.158;2023-07-31T03:11:14;3.90;;;2.50;;
55800;SDS011;41730;51.960;20.158;2023-07-31T03:13:43;3.20;;;2.50;;
55800;SDS011;41730;51.960;20.158;2023-07-31T03:16:12;5.50;;;2.40;;
55800;SDS011;41730;51.960;20.158;2023-07-31T03:18:41;4.10;;;2.60;;
55800;SDS011;41730;51.960;20.158;2023-07-31T03:21:09;3.70;;;2.60;;
55800;SDS011;41730;51.960;20.158;2023-07-31T03:23:38;3.70;;;2.30;;
55800;SDS011;41730;51.960;20.158;2023-07-31T03:26:08;4.60;;;2.30;;
55800;SDS011;41730;51.960;20.158;2023-07-31T03:28:40;3.10;;;2.20;;
55800;SDS011;41730;51.960;20.158;2023-07-31T03:31:23;4.00;;;2.20;;
55800;SDS011;41730;51.960;20.158;2023-07-31T03:34:33;3.70;;;2.20;;
55800;SDS011;41730;51.960;20.158;2023-07-31T03:37:19;3.50;;;2.20;;
55800;SDS011;41730;51.960;20.158;2023-07-31T03:40:12;5.00;;;2.50;;
55800;SDS011;41730;51.960;20.158;2023-07-31T03:42:41;3.30;;;2.20;;
55800;SDS011;41730;51.960;20.158;2023-07-31T03:45:11;3.50;;;2.20;;
55800;SDS011;41730;51.960;20.158;2023-07-31T03:47:40;4.80;;;2.50;;
55800;SDS011;41730;51.960;20.158;2023-07-31T03:50:09;4.40;;;2.50;;
55800;SDS011;41730;51.960;20.158;2023-07-31T03:52:38;5.10;;;2.30;;
55800;SDS011;41730;51.960;20.158;2023-07-31T03:55:07;3.60;;;2.50;;
55800;SDS011;41730;51.960;20.158;2023-07-31T03:57:37;4.60;;;2.30;;
55800;SDS011;41730;51.960;20.158;2023-07-31T04:00:07;3.80;;;2.70;;
55800;SDS011;41730;51.960;20.158;2023-07-31T04:02:38;3.80;;;2.50;;
55800;SDS011;41730;51.960;20.158;2023-07-31T04:05:06;7.50;;;2.60;;
55800;SDS011;41730;51.960;20.158;2023-07-31T04:07:37;4.90;;;2.70;;
55800;SDS011;41730;51.960;20.158;2023-07-31T04:10:06;3.90;;;2.40;;
55800;SDS011;41730;51.960;20.158;2023-07-31T04:12:39;3.90;;;2.60;;
55800;SDS011;41730;51.960;20.158;2023-07-31T04:15:08;7.10;;;2.50;;
55800;SDS011;41730;51.960;20.158;2023-07-31T04:17:38;3.10;;;2.30;;
55800;SDS011;41730;51.960;20.158;2023-07-31T04:20:08;4.00;;;2.50;;
55800;SDS011;41730;51.960;20.158;2023-07-31T04:22:38;4.80;;;2.50;;
55800;SDS011;41730;51.960;20.158;2023-07-31T04:25:08;4.30;;;2.60;;
55800;SDS011;41730;51.960;20.158;2023-07-31T04:27:37;4.20;;;2.20;;
55800;SDS011;41730;51.960;20.158;2023-07-31T04:30:08;3.80;;;2.40;;
55800;SDS011;41730;51.960;20.158;2023-07-31T04:32:37;4.70;;;2.40;;
55800;SDS011;41730;51.960;20.158;2023-07-31T04:35:06;4.10;;;2.30;;
55800;SDS011;41730;51.960;20.158;2023-07-31T04:37:35;4.70;;;2.30;;
55800;SDS011;41730;51.960;20.158;2023-07-31T04:40:07;4.40;;;2.20;;
55800;SDS011;41730;51.960;20.158;2023-07-31T04:42:37;4.30;;;2.20;;
55800;SDS011;41730;51.960;20.158;2023-07-31T04:45:08;3.60;;;2.10;;
55800;SDS011;41730;51.960;20.158;2023-07-31T04:47:37;3.30;;;2.10;;
55800;SDS011;41730;51.960;20.158;2023-07-31T04:50:07;5.70;;;2.50;;
55800;SDS011;41730;51.960;20.158;2023-07-31T04:52:37;5.40;;;2.30;;
55800;SDS011;41730;51.960;20.158;2023-07-31T04:55:06;6.50;;;2.40;;
55800;SDS011;41730;51.960;20.158;2023-07-31T04:57:36;3.60;;;2.20;;
55800;SDS011;41730;51.960;20.158;2023-07-31T05:00:06;4.00;;;2.70;;
55800;SDS011;41730;51.960;20.158;2023-07-31T05:02:36;4.80;;;2.20;;
55800;SDS011;41730;51.960;20.158;2023-07-31T05:05:05;4.20;;;2.40;;
55800;SDS011;41730;51.960;20.158;2023-07-31T05:07:35;4.60;;;2.40;;
55800;SDS011;41730;51.960;20.158;2023-07-31T05:10:05;3.40;;;2.00;;
55800;SDS011;41730;51.960;20.158;2023-07-31T05:12:36;3.50;;;2.10;;
55800;SDS011;41730;51.960;20.158;2023-07-31T05:15:06;3.40;;;2.20;;
55800;SDS011;41730;51.960;20.158;2023-07-31T05:17:36;5.10;;;2.10;;
55800;SDS011;41730;51.960;20.158;2023-07-31T05:20:07;3.50;;;2.20;;
55800;SDS011;41730;51.960;20.158;2023-07-31T05:22:37;3.70;;;2.20;;
55800;SDS011;41730;51.960;20.158;2023-07-31T05:25:07;7.20;;;2.20;;
55800;SDS011;41730;51.960;20.158;2023-07-31T05:27:36;5.20;;;2.40;;
55800;SDS011;41730;51.960;20.158;2023-07-31T05:30:08;4.60;;;2.30;;
55800;SDS011;41730;51.960;20.158;2023-07-31T05:32:37;4.90;;;2.20;;
55800;SDS011;41730;51.960;20.158;2023-07-31T05:35:14;3.80;;;1.90;;
55800;SDS011;41730;51.960;20.158;2023-07-31T05:38:04;4.70;;;2.20;;
55800;SDS011;41730;51.960;20.158;2023-07-31T05:40:33;3.30;;;1.90;;
55800;SDS011;41730;51.960;20.158;2023-07-31T05:43:02;4.80;;;2.10;;
55800;SDS011;41730;51.960;20.158;2023-07-31T05:45:33;3.40;;;2.00;;
55800;SDS011;41730;51.960;20.158;2023-07-31T05:48:03;3.10;;;2.10;;
55800;SDS011;41730;51.960;20.158;2023-07-31T05:50:32;4.50;;;2.10;;
55800;SDS011;41730;51.960;20.158;2023-07-31T05:53:02;4.90;;;2.00;;
55800;SDS011;41730;51.960;20.158;2023-07-31T05:55:32;3.90;;;2.20;;
55800;SDS011;41730;51.960;20.158;2023-07-31T05:58:01;4.70;;;2.10;;
55800;SDS011;41730;51.960;20.158;2023-07-31T06:00:30;4.50;;;2.40;;
55800;SDS011;41730;51.960;20.158;2023-07-31T06:02:59;3.20;;;2.00;;
55800;SDS011;41730;51.960;20.158;2023-07-31T06:05:28;3.60;;;2.00;;
55800;SDS011;41730;51.960;20.158;2023-07-31T06:07:57;5.90;;;2.20;;
55800;SDS011;41730;51.960;20.158;2023-07-31T06:10:26;4.90;;;2.20;;
55800;SDS011;41730;51.960;20.158;2023-07-31T06:12:55;5.80;;;2.20;;
55800;SDS011;41730;51.960;20.158;2023-07-31T06:15:25;5.40;;;2.10;;
55800;SDS011;41730;51.960;20.158;2023-07-31T06:17:54;3.10;;;2.20;;
55800;SDS011;41730;51.960;20.158;2023-07-31T06:20:24;4.00;;;2.10;;
55800;SDS011;41730;51.960;20.158;2023-07-31T06:22:54;4.90;;;2.30;;
55800;SDS011;41730;51.960;20.158;2023-07-31T06:25:23;4.00;;;2.20;;
55800;SDS011;41730;51.960;20.158;2023-07-31T06:27:52;4.30;;;2.20;;
